sensor_id;sensor_type;location;lat;lon;timestamp;pressure;altitude;pressure_sealevel;temperature;humidity
24302;BME280;12421;49.732;20.078;2023-02-28T00:01:40;97910.01;;;-0.98;68.42
24302;BME280;12421;49.732;20.078;2023-02-28T00:11:43;97917.45;;;-1.08;68.36
24302;BME280;12421;49.732;20.078;2023-02-28T00:21:47;97926.30;;;-1.16;68.59
24302;BME280;12421;49.732;20.078;2023-02-28T00:31:50;97937.80;;;-1.24;68.63
24302;BME280;12421;49.732;20.078;2023-02-28T00:41:53;97937.13;;;-1.24;69.07
24302;BME280;12421;49.732;20.078;2023-02-28T00:51:56;97941.16;;;-1.29;69.39
24302;BME280;12421;49.732;20.078;2023-02-28T01:02:01;97953.61;;;-1.28;70.27
24302;BME280;12421;49.732;20.078;2023-02-28T01:12:06;97950.08;;;-1.17;70.24
24302;BME280;12421;49.732;20.078;2023-02-28T01:22:10;97934.84;;;-1.18;70.76
24302;BME280;12421;49.732;20.078;2023-02-28T01:32:14;97931.68;;;-1.36;70.98
24302;BME280;12421;49.732;20.078;2023-02-28T01:42:17;97931.08;;;-1.64;71.55
24302;BME280;12421;49.732;20.078;2023-02-28T01:52:21;97930.02;;;-1.94;71.27
24302;BME280;12421;49.732;20.078;2023-02-28T02:02:29;97922.66;;;-2.16;71.87
24302;BME280;12421;49.732;20.078;2023-02-28T02:43:29;97907.29;;;-3.65;73.26
24302;BME280;12421;49.732;20.078;2023-02-28T02:53:37;97906.22;;;-3.94;73.51
24302;BME280;12421;49.732;20.078;2023-02-28T03:03:44;97910.36;;;-4.16;73.68
24302;BME280;12421;49.732;20.078;2023-02-28T03:14:16;97923.30;;;-4.39;73.87
24302;BME280;12421;49.732;20.078;2023-02-28T03:24:49;97927.00;;;-4.75;74.25
24302;BME280;12421;49.732;20.078;2023-02-28T03:45:05;97944.42;;;-5.10;75.02
24302;BME280;12421;49.732;20.078;2023-02-28T03:55:13;97949.19;;;-5.37;75.14
24302;BME280;12421;49.732;20.078;2023-02-28T04:05:19;97954.48;;;-5.65;75.00
24302;BME280;12421;49.732;20.078;2023-02-28T04:15:23;97960.05;;;-5.81;75.89
24302;BME280;12421;49.732;20.078;2023-02-28T04:25:27;97964.25;;;-5.95;75.74
24302;BME280;12421;49.732;20.078;2023-02-28T04:35:30;97967.31;;;-6.12;76.19
24302;BME280;12421;49.732;20.078;2023-02-28T04:45:34;97962.25;;;-6.21;76.38
24302;BME280;12421;49.732;20.078;2023-02-28T04:55:38;97970.48;;;-6.23;76.20
24302;BME280;12421;49.732;20.078;2023-02-28T05:05:43;97976.84;;;-6.27;75.95
24302;BME280;12421;49.732;20.078;2023-02-28T05:15:46;97971.60;;;-6.27;75.94
24302;BME280;12421;49.732;20.078;2023-02-28T05:25:50;97975.66;;;-6.27;76.07
24302;BME280;12421;49.732;20.078;2023-02-28T05:35:55;97983.76;;;-6.34;75.92
24302;BME280;12421;49.732;20.078;2023-02-28T05:45:59;98001.35;;;-6.43;75.99
24302;BME280;12421;49.732;20.078;2023-02-28T05:56:04;98013.70;;;-6.33;75.91
24302;BME280;12421;49.732;20.078;2023-02-28T06:06:08;98029.11;;;-6.21;75.89
24302;BME280;12421;49.732;20.078;2023-02-28T06:16:11;98027.54;;;-5.94;76.59
24302;BME280;12421;49.732;20.078;2023-02-28T06:26:16;98034.08;;;-5.59;76.23
24302;BME280;12421;49.732;20.078;2023-02-28T06:36:19;98038.19;;;-5.26;76.27
24302;BME280;12421;49.732;20.078;2023-02-28T06:46:23;98040.98;;;-4.89;76.05
24302;BME280;12421;49.732;20.078;2023-02-28T06:56:27;98039.03;;;-4.22;76.08
24302;BME280;12421;49.732;20.078;2023-02-28T07:06:30;98037.59;;;-3.50;74.88
24302;BME280;12421;49.732;20.078;2023-02-28T07:16:35;98031.59;;;-2.74;74.13
24302;BME280;12421;49.732;20.078;2023-02-28T07:26:38;98034.23;;;-1.76;72.27
24302;BME280;12421;49.732;20.078;2023-02-28T07:36:42;98030.00;;;-0.59;70.80
24302;BME280;12421;49.732;20.078;2023-02-28T07:46:45;98035.29;;;0.40;68.06
24302;BME280;12421;49.732;20.078;2023-02-28T07:56:48;98031.46;;;0.92;65.18
24302;BME280;12421;49.732;20.078;2023-02-28T08:06:52;98029.91;;;0.62;61.37
24302;BME280;12421;49.732;20.078;2023-02-28T08:16:56;98032.64;;;0.42;61.07
24302;BME280;12421;49.732;20.078;2023-02-28T08:26:59;98039.52;;;0.27;59.94
24302;BME280;12421;49.732;20.078;2023-02-28T08:37:02;98042.30;;;0.20;59.61
24302;BME280;12421;49.732;20.078;2023-02-28T08:47:05;98047.26;;;0.26;59.80
24302;BME280;12421;49.732;20.078;2023-02-28T08:57:09;98046.58;;;0.48;59.16
24302;BME280;12421;49.732;20.078;2023-02-28T09:07:12;98040.33;;;0.63;59.15
24302;BME280;12421;49.732;20.078;2023-02-28T09:17:16;98038.58;;;0.81;58.49
24302;BME280;12421;49.732;20.078;2023-02-28T09:27:19;98036.67;;;0.89;57.78
24302;BME280;12421;49.732;20.078;2023-02-28T09:37:24;98026.69;;;0.98;57.80
24302;BME280;12421;49.732;20.078;2023-02-28T09:47:36;98030.91;;;1.07;57.55
24302;BME280;12421;49.732;20.078;2023-02-28T09:57:42;98031.95;;;1.19;57.72
24302;BME280;12421;49.732;20.078;2023-02-28T10:18:49;98028.42;;;1.33;57.69
24302;BME280;12421;49.732;20.078;2023-02-28T10:28:53;98027.00;;;1.45;57.74
24302;BME280;12421;49.732;20.078;2023-02-28T10:38:58;98016.56;;;1.39;57.02
24302;BME280;12421;49.732;20.078;2023-02-28T10:49:06;98009.99;;;1.44;57.45
24302;BME280;12421;49.732;20.078;2023-02-28T11:09:23;97990.18;;;1.62;57.14
24302;BME280;12421;49.732;20.078;2023-02-28T11:19:40;97978.13;;;1.68;57.22
24302;BME280;12421;49.732;20.078;2023-02-28T11:29:48;97964.10;;;1.90;57.68
24302;BME280;12421;49.732;20.078;2023-02-28T11:39:52;97956.14;;;2.03;56.35
24302;BME280;12421;49.732;20.078;2023-02-28T12:31:46;97951.04;;;2.46;56.24
24302;BME280;12421;49.732;20.078;2023-02-28T12:42:05;97941.17;;;2.61;56.65
24302;BME280;12421;49.732;20.078;2023-02-28T12:52:11;97936.20;;;2.67;56.20
24302;BME280;12421;49.732;20.078;2023-02-28T13:12:25;97931.66;;;2.76;55.79
24302;BME280;12421;49.732;20.078;2023-02-28T13:22:48;97921.73;;;2.79;55.85
24302;BME280;12421;49.732;20.078;2023-02-28T13:44:04;97912.96;;;3.08;56.34
24302;BME280;12421;49.732;20.078;2023-02-28T14:25:40;97886.40;;;2.86;55.62
24302;BME280;12421;49.732;20.078;2023-02-28T14:36:01;97885.80;;;2.78;55.75
24302;BME280;12421;49.732;20.078;2023-02-28T14:46:07;97877.70;;;2.80;56.56
24302;BME280;12421;49.732;20.078;2023-02-28T14:56:37;97879.80;;;2.75;56.11
24302;BME280;12421;49.732;20.078;2023-02-28T15:06:41;97882.09;;;2.62;56.53
24302;BME280;12421;49.732;20.078;2023-02-28T15:16:47;97885.92;;;2.48;56.93
24302;BME280;12421;49.732;20.078;2023-02-28T15:26:57;97887.48;;;2.24;56.60
24302;BME280;12421;49.732;20.078;2023-02-28T15:37:01;97885.80;;;1.97;56.66
24302;BME280;12421;49.732;20.078;2023-02-28T15:47:14;97883.16;;;1.74;57.74
24302;BME280;12421;49.732;20.078;2023-02-28T15:57:25;97885.83;;;1.49;58.28
24302;BME280;12421;49.732;20.078;2023-02-28T16:07:30;97893.13;;;1.24;59.37
24302;BME280;12421;49.732;20.078;2023-02-28T16:17:37;97899.41;;;0.96;59.72
24302;BME280;12421;49.732;20.078;2023-02-28T16:27:43;97908.77;;;0.69;60.75
24302;BME280;12421;49.732;20.078;2023-02-28T16:37:50;97914.92;;;0.40;61.60
24302;BME280;12421;49.732;20.078;2023-02-28T16:47:55;97927.90;;;0.14;62.68
24302;BME280;12421;49.732;20.078;2023-02-28T16:58:00;97937.78;;;-0.09;63.39
24302;BME280;12421;49.732;20.078;2023-02-28T17:08:04;97949.76;;;-0.29;64.55
24302;BME280;12421;49.732;20.078;2023-02-28T17:18:14;97952.10;;;-0.45;64.87
24302;BME280;12421;49.732;20.078;2023-02-28T17:28:20;97951.90;;;-0.56;65.23
24302;BME280;12421;49.732;20.078;2023-02-28T17:38:24;97947.83;;;-0.68;66.16
24302;BME280;12421;49.732;20.078;2023-02-28T17:48:27;97947.83;;;-0.96;67.15
24302;BME280;12421;49.732;20.078;2023-02-28T17:58:33;97945.17;;;-1.25;67.98
24302;BME280;12421;49.732;20.078;2023-02-28T18:08:37;97947.35;;;-1.46;68.89
24302;BME280;12421;49.732;20.078;2023-02-28T18:18:41;97949.45;;;-1.55;69.72
24302;BME280;12421;49.732;20.078;2023-02-28T18:28:46;97944.55;;;-1.66;70.25
24302;BME280;12421;49.732;20.078;2023-02-28T18:38:51;97941.62;;;-1.77;70.45
24302;BME280;12421;49.732;20.078;2023-02-28T18:48:54;97954.49;;;-1.96;71.38
24302;BME280;12421;49.732;20.078;2023-02-28T18:58:57;97951.39;;;-2.22;71.59
24302;BME280;12421;49.732;20.078;2023-02-28T19:09:02;97950.55;;;-2.37;72.38
24302;BME280;12421;49.732;20.078;2023-02-28T19:19:06;97953.58;;;-2.44;72.65
24302;BME280;12421;49.732;20.078;2023-02-28T19:29:09;97956.95;;;-2.52;72.82
24302;BME280;12421;49.732;20.078;2023-02-28T19:39:12;97957.73;;;-2.68;73.16
24302;BME280;12421;49.732;20.078;2023-02-28T19:49:15;97964.28;;;-2.83;73.53
24302;BME280;12421;49.732;20.078;2023-02-28T19:59:22;97966.12;;;-2.93;73.58
24302;BME280;12421;49.732;20.078;2023-02-28T20:09:40;97962.05;;;-3.04;73.91
24302;BME280;12421;49.732;20.078;2023-02-28T20:19:44;97954.77;;;-3.02;74.17
24302;BME280;12421;49.732;20.078;2023-02-28T20:29:47;97942.50;;;-3.06;74.49
24302;BME280;12421;49.732;20.078;2023-02-28T20:39:52;97943.40;;;-3.20;74.57
24302;BME280;12421;49.732;20.078;2023-02-28T20:49:55;97950.91;;;-3.44;74.75
24302;BME280;12421;49.732;20.078;2023-02-28T20:59:58;97953.85;;;-3.61;75.27
24302;BME280;12421;49.732;20.078;2023-02-28T21:10:01;97955.32;;;-3.68;75.29
24302;BME280;12421;49.732;20.078;2023-02-28T21:20:05;97968.11;;;-3.75;75.56
24302;BME280;12421;49.732;20.078;2023-02-28T21:30:09;97956.23;;;-3.95;75.77
24302;BME280;12421;49.732;20.078;2023-02-28T21:40:12;97947.21;;;-4.07;76.06
24302;BME280;12421;49.732;20.078;2023-02-28T21:50:15;97944.86;;;-4.13;76.08
24302;BME280;12421;49.732;20.078;2023-02-28T22:00:19;97956.91;;;-4.28;76.07
24302;BME280;12421;49.732;20.078;2023-02-28T22:10:22;97952.14;;;-4.49;76.25
24302;BME280;12421;49.732;20.078;2023-02-28T22:20:26;97953.77;;;-4.48;76.68
24302;BME280;12421;49.732;20.078;2023-02-28T22:30:30;97953.72;;;-4.43;76.63
24302;BME280;12421;49.732;20.078;2023-02-28T22:40:33;97968.14;;;-4.54;76.44
24302;BME280;12421;49.732;20.078;2023-02-28T22:50:37;97976.05;;;-4.64;76.77
24302;BME280;12421;49.732;20.078;2023-02-28T23:00:41;97977.57;;;-4.75;76.71
24302;BME280;12421;49.732;20.078;2023-02-28T23:10:45;97984.68;;;-4.89;76.72
24302;BME280;12421;49.732;20.078;2023-02-28T23:20:48;97989.48;;;-4.99;77.37
24302;BME280;12421;49.732;20.078;2023-02-28T23:30:51;97987.52;;;-5.01;77.50
24302;BME280;12421;49.732;20.078;2023-02-28T23:40:55;97988.11;;;-5.07;76.93
24302;BME280;12421;49.732;20.078;2023-02-28T23:51:19;97985.00;;;-5.10;77.20
